Time;durP1;ratioP1;P1;durP2;ratioP2;P2;SDS_P1;SDS_P2;PMS_P1;PMS_P2;Temp;Humidity;BMP_temperature;BMP_pressure;BME280_temperature;BME280_humidity;BME280_pressure;Samples;Min_cycle;Max_cycle;Signal;HPM_P1;HPM_P2
2023/08/03 00:01:52;;;;;;;9.85;3.38;;;;;;;;;;5063949;28;20503;-83
2023/08/03 00:04:18;;;;;;;9.98;2.22;;;;;;;;;;5064364;28;20075;-82
2023/08/03 00:06:44;;;;;;;11.05;2.67;;;;;;;;;;5063739;28;20043;-82
2023/08/03 00:09:10;;;;;;;7.25;2.22;;;;;;;;;;5065191;28;20441;-82
2023/08/03 00:11:36;;;;;;;9.30;2.20;;;;;;;;;;5065430;28;20043;-83
2023/08/03 00:14:03;;;;;;;7.60;1.73;;;;;;;;;;5063235;28;20420;-83
2023/08/03 00:16:29;;;;;;;8.57;2.40;;;;;;;;;;5063713;28;20051;-83
2023/08/03 00:18:55;;;;;;;6.70;2.55;;;;;;;;;;5077659;28;20479;-84
2023/08/03 00:21:21;;;;;;;9.18;2.17;;;;;;;;;;5071785;28;20166;-84
2023/08/03 00:23:47;;;;;;;5.30;2.20;;;;;;;;;;5072475;28;20067;-84
2023/08/03 00:26:13;;;;;;;9.43;2.45;;;;;;;;;;5069759;28;20116;-84
2023/08/03 00:28:39;;;;;;;9.80;2.13;;;;;;;;;;5051694;28;20337;-84
2023/08/03 00:31:05;;;;;;;5.95;2.70;;;;;;;;;;5067602;28;20051;-84
2023/08/03 00:33:31;;;;;;;9.48;2.47;;;;;;;;;;5084686;28;20044;-83
2023/08/03 00:35:57;;;;;;;6.93;2.50;;;;;;;;;;5087333;27;20457;-84
2023/08/03 00:38:23;;;;;;;7.03;3.13;;;;;;;;;;5088300;28;20135;-84
2023/08/03 00:40:53;;;;;;;12.60;5.30;;;;;;;;;;5070344;28;20055;-84
2023/08/03 00:43:19;;;;;;;14.02;7.07;;;;;;;;;;5067023;27;20128;-84
2023/08/03 00:45:45;;;;;;;15.32;10.73;;;;;;;;;;5068428;27;20063;-84
2023/08/03 00:48:11;;;;;;;16.83;12.32;;;;;;;;;;5067405;28;20369;-84
2023/08/03 00:50:37;;;;;;;28.83;17.90;;;;;;;;;;5063349;28;20645;-84
2023/08/03 00:53:04;;;;;;;31.50;20.95;;;;;;;;;;5068381;28;20083;-83
2023/08/03 00:55:30;;;;;;;35.33;21.42;;;;;;;;;;5066437;28;20055;-84
2023/08/03 00:57:56;;;;;;;35.28;20.17;;;;;;;;;;5051816;28;20054;-84
2023/08/03 01:00:22;;;;;;;25.08;16.55;;;;;;;;;;5065185;28;21497;-84
2023/08/03 01:02:48;;;;;;;27.45;16.27;;;;;;;;;;5087040;28;20094;-84
2023/08/03 01:05:14;;;;;;;22.60;13.77;;;;;;;;;;5087086;27;20051;-84
2023/08/03 01:07:40;;;;;;;19.05;12.30;;;;;;;;;;5068092;28;20125;-84
2023/08/03 01:10:07;;;;;;;19.88;10.95;;;;;;;;;;5069834;28;20051;-84
2023/08/03 01:12:33;;;;;;;21.30;10.38;;;;;;;;;;5069105;28;20051;-83
2023/08/03 01:15:00;;;;;;;17.10;9.60;;;;;;;;;;5086282;28;20058;-84
2023/08/03 01:17:26;;;;;;;16.75;8.82;;;;;;;;;;5066306;28;20515;-84
2023/08/03 01:19:52;;;;;;;13.90;7.50;;;;;;;;;;5069817;28;20556;-84
2023/08/03 01:22:19;;;;;;;12.73;7.57;;;;;;;;;;5064865;28;20040;-84
2023/08/03 01:24:45;;;;;;;13.70;7.35;;;;;;;;;;5073962;28;20071;-85
2023/08/03 01:27:11;;;;;;;8.95;5.65;;;;;;;;;;5104421;27;20055;-84
2023/08/03 01:29:37;;;;;;;7.60;5.00;;;;;;;;;;5082600;28;20039;-84
2023/08/03 01:32:04;;;;;;;8.68;3.40;;;;;;;;;;5080301;28;20134;-83
2023/08/03 01:34:30;;;;;;;7.00;3.42;;;;;;;;;;5066602;28;20148;-84
2023/08/03 01:36:56;;;;;;;9.60;3.35;;;;;;;;;;5099741;28;20056;-84
2023/08/03 01:39:24;;;;;;;14.23;2.97;;;;;;;;;;5102495;28;20040;-84
2023/08/03 01:41:51;;;;;;;7.32;2.42;;;;;;;;;;5105018;28;20491;-84
2023/08/03 01:44:21;;;;;;;10.75;2.38;;;;;;;;;;5082615;28;20139;-82
2023/08/03 01:46:48;;;;;;;8.82;3.75;;;;;;;;;;5070506;28;20059;-82
2023/08/03 01:49:14;;;;;;;6.97;3.15;;;;;;;;;;5068131;28;20051;-82
2023/08/03 01:51:40;;;;;;;15.05;3.45;;;;;;;;;;5052795;28;20077;-81
2023/08/03 01:54:07;;;;;;;12.30;4.38;;;;;;;;;;5056934;28;21911;-82
2023/08/03 01:56:33;;;;;;;8.77;4.20;;;;;;;;;;5072722;28;20121;-82
2023/08/03 01:58:59;;;;;;;9.98;4.03;;;;;;;;;;5070985;28;20043;-82
2023/08/03 02:01:25;;;;;;;5.28;2.67;;;;;;;;;;5058713;28;20047;-82
2023/08/03 02:03:51;;;;;;;4.18;2.72;;;;;;;;;;5076828;27;20043;-82
2023/08/03 02:06:17;;;;;;;6.35;2.20;;;;;;;;;;5074052;28;20144;-82
2023/08/03 02:08:43;;;;;;;6.78;3.00;;;;;;;;;;5081890;28;20043;-82
2023/08/03 02:11:09;;;;;;;9.50;3.50;;;;;;;;;;5090307;28;20057;-82
2023/08/03 02:13:35;;;;;;;7.25;3.30;;;;;;;;;;5075955;28;20490;-82
2023/08/03 02:16:02;;;;;;;6.18;3.72;;;;;;;;;;5079935;28;20152;-82
2023/08/03 02:18:31;;;;;;;11.40;4.45;;;;;;;;;;5097068;28;20055;-82
2023/08/03 02:20:57;;;;;;;12.45;4.88;;;;;;;;;;5110781;28;20051;-83
2023/08/03 02:23:23;;;;;;;10.32;4.90;;;;;;;;;;5089394;27;20050;-82
2023/08/03 02:25:53;;;;;;;6.25;3.55;;;;;;;;;;5070593;28;20055;-82
2023/08/03 02:28:19;;;;;;;7.90;4.55;;;;;;;;;;5074854;28;20066;-80
2023/08/03 02:30:45;;;;;;;8.52;4.38;;;;;;;;;;5059226;28;20047;-82
2023/08/03 02:33:11;;;;;;;9.02;4.45;;;;;;;;;;5069854;28;20085;-82
2023/08/03 02:35:39;;;;;;;6.35;3.78;;;;;;;;;;5088025;28;20047;-82
2023/08/03 02:38:05;;;;;;;6.60;4.20;;;;;;;;;;5070136;28;20138;-82
2023/08/03 02:40:31;;;;;;;8.15;4.13;;;;;;;;;;5089026;28;20615;-82
2023/08/03 02:42:57;;;;;;;6.28;3.33;;;;;;;;;;5081451;28;20158;-82
2023/08/03 02:45:24;;;;;;;9.10;3.90;;;;;;;;;;5062155;28;20058;-82
2023/08/03 02:47:50;;;;;;;6.07;4.03;;;;;;;;;;5045177;28;20058;-82
2023/08/03 02:50:16;;;;;;;6.88;3.50;;;;;;;;;;5059448;28;20910;-83
2023/08/03 02:52:42;;;;;;;5.53;3.92;;;;;;;;;;5058399;28;20069;-82
2023/08/03 02:55:08;;;;;;;10.50;4.03;;;;;;;;;;5076102;27;20171;-82
2023/08/03 02:57:34;;;;;;;4.90;3.70;;;;;;;;;;5054910;28;20048;-82
2023/08/03 03:00:00;;;;;;;6.55;3.78;;;;;;;;;;5058125;28;20709;-82
2023/08/03 03:02:26;;;;;;;8.68;3.38;;;;;;;;;;5059747;28;20858;-82
2023/08/03 03:04:52;;;;;;;10.32;3.60;;;;;;;;;;5056374;28;20090;-82
2023/08/03 03:07:18;;;;;;;7.78;3.17;;;;;;;;;;5078735;28;20071;-82
2023/08/03 03:09:44;;;;;;;9.52;2.92;;;;;;;;;;5059507;28;20047;-82
2023/08/03 03:12:10;;;;;;;7.05;3.38;;;;;;;;;;5058276;28;20052;-82
2023/08/03 03:14:36;;;;;;;6.07;3.50;;;;;;;;;;5054197;28;20051;-82
2023/08/03 03:17:03;;;;;;;7.00;3.53;;;;;;;;;;5058875;28;20442;-82
2023/08/03 03:19:29;;;;;;;7.30;3.38;;;;;;;;;;5056209;27;20043;-81
2023/08/03 03:21:55;;;;;;;9.75;3.30;;;;;;;;;;5058913;28;20105;-81
2023/08/03 03:24:21;;;;;;;5.38;3.10;;;;;;;;;;5056420;28;20051;-81
2023/08/03 03:26:47;;;;;;;8.10;3.88;;;;;;;;;;5047342;28;21117;-81
2023/08/03 03:29:13;;;;;;;7.65;3.47;;;;;;;;;;5055056;28;20162;-81
2023/08/03 03:31:39;;;;;;;6.90;3.25;;;;;;;;;;5055984;28;21005;-81
2023/08/03 03:34:06;;;;;;;10.45;3.30;;;;;;;;;;5056485;28;20141;-81
2023/08/03 03:36:33;;;;;;;7.88;2.90;;;;;;;;;;5075804;28;20048;-82
2023/08/03 03:38:59;;;;;;;6.35;3.20;;;;;;;;;;5059754;28;20776;-81
2023/08/03 03:41:25;;;;;;;7.03;3.58;;;;;;;;;;5057209;28;20051;-81
2023/08/03 03:43:51;;;;;;;7.30;2.83;;;;;;;;;;5060961;28;20051;-81
2023/08/03 03:46:17;;;;;;;8.65;3.60;;;;;;;;;;5073673;28;20646;-81
2023/08/03 03:48:43;;;;;;;7.03;3.30;;;;;;;;;;5057277;28;20121;-81
2023/08/03 03:51:09;;;;;;;7.63;3.78;;;;;;;;;;5074086;28;20193;-82
2023/08/03 03:53:35;;;;;;;6.93;3.80;;;;;;;;;;5058212;28;20158;-81
2023/08/03 03:56:02;;;;;;;8.40;3.78;;;;;;;;;;5077917;27;20109;-81
2023/08/03 03:58:29;;;;;;;8.35;3.75;;;;;;;;;;5057849;28;20101;-81
2023/08/03 04:00:55;;;;;;;6.60;4.20;;;;;;;;;;5075322;28;20074;-81
2023/08/03 04:03:24;;;;;;;6.82;3.92;;;;;;;;;;5072474;28;20047;-81
2023/08/03 04:05:50;;;;;;;6.03;3.97;;;;;;;;;;5050374;28;20055;-82
2023/08/03 04:08:16;;;;;;;6.68;3.88;;;;;;;;;;5059903;28;20628;-82
2023/08/03 04:10:42;;;;;;;7.43;4.05;;;;;;;;;;5057777;28;20772;-82
2023/08/03 04:13:08;;;;;;;4.03;3.42;;;;;;;;;;5077150;28;20061;-82
2023/08/03 04:15:34;;;;;;;8.48;4.20;;;;;;;;;;5057328;28;20055;-81
2023/08/03 04:18:00;;;;;;;8.90;4.97;;;;;;;;;;5052162;28;20458;-81
2023/08/03 04:20:26;;;;;;;12.02;4.78;;;;;;;;;;5058080;28;20052;-81
2023/08/03 04:22:52;;;;;;;6.95;4.60;;;;;;;;;;5053460;28;20063;-81
2023/08/03 04:25:18;;;;;;;9.80;5.07;;;;;;;;;;5075614;28;21519;-81
2023/08/03 04:27:44;;;;;;;7.25;4.95;;;;;;;;;;5075092;28;21405;-81
2023/08/03 04:30:13;;;;;;;12.98;5.70;;;;;;;;;;5054604;28;20048;-82
2023/08/03 04:32:39;;;;;;;7.90;5.38;;;;;;;;;;5060228;28;20102;-82
2023/08/03 04:35:05;;;;;;;16.17;5.70;;;;;;;;;;5044500;28;20115;-81
2023/08/03 04:37:31;;;;;;;8.77;5.65;;;;;;;;;;5074940;28;20747;-82
2023/08/03 04:39:59;;;;;;;9.45;5.32;;;;;;;;;;5054951;28;20085;-80
2023/08/03 04:42:25;;;;;;;8.27;5.85;;;;;;;;;;5055938;28;20236;-80
2023/08/03 04:44:51;;;;;;;12.75;6.57;;;;;;;;;;5074708;28;20454;-80
2023/08/03 04:47:18;;;;;;;9.85;5.93;;;;;;;;;;5070361;28;21006;-79
2023/08/03 04:49:44;;;;;;;7.95;5.72;;;;;;;;;;5075577;28;20043;-79
2023/08/03 04:52:10;;;;;;;10.75;6.80;;;;;;;;;;5078372;28;20051;-79
2023/08/03 04:54:36;;;;;;;9.10;6.35;;;;;;;;;;5075987;28;20499;-79
2023/08/03 04:57:02;;;;;;;11.57;6.45;;;;;;;;;;5075792;28;20052;-79
2023/08/03 04:59:28;;;;;;;9.40;5.90;;;;;;;;;;5075397;28;20155;-80
2023/08/03 05:01:54;;;;;;;9.15;6.80;;;;;;;;;;5077841;28;20078;-80
2023/08/03 05:04:20;;;;;;;11.82;6.38;;;;;;;;;;5078794;28;20121;-80
2023/08/03 05:06:46;;;;;;;11.32;6.93;;;;;;;;;;5079955;28;20122;-80
2023/08/03 05:09:12;;;;;;;13.13;6.60;;;;;;;;;;5083948;28;20062;-80
2023/08/03 05:11:38;;;;;;;12.77;6.97;;;;;;;;;;5080052;28;20047;-80
2023/08/03 05:14:04;;;;;;;9.88;6.70;;;;;;;;;;5078573;28;20051;-80
2023/08/03 05:16:30;;;;;;;9.25;6.38;;;;;;;;;;5077912;28;20052;-80
2023/08/03 05:18:57;;;;;;;15.15;6.80;;;;;;;;;;5078460;28;20042;-80
2023/08/03 05:21:23;;;;;;;6.55;5.28;;;;;;;;;;5041537;28;20056;-79
2023/08/03 05:23:49;;;;;;;6.88;5.10;;;;;;;;;;5085807;27;20057;-80
2023/08/03 05:26:15;;;;;;;7.63;5.35;;;;;;;;;;5067266;28;20230;-79
2023/08/03 05:28:41;;;;;;;6.93;5.20;;;;;;;;;;5086057;28;20494;-79
2023/08/03 05:31:07;;;;;;;4.97;4.47;;;;;;;;;;5082461;28;20133;-79
2023/08/03 05:33:34;;;;;;;6.18;5.43;;;;;;;;;;5081296;28;20051;-80
2023/08/03 05:36:00;;;;;;;7.75;5.57;;;;;;;;;;5080028;28;20652;-79
2023/08/03 05:38:26;;;;;;;8.02;6.07;;;;;;;;;;5078705;28;20056;-80
2023/08/03 05:40:52;;;;;;;7.55;6.63;;;;;;;;;;5062288;28;20499;-79
2023/08/03 05:43:18;;;;;;;10.18;6.78;;;;;;;;;;5079811;27;20085;-80
2023/08/03 05:45:47;;;;;;;7.32;6.45;;;;;;;;;;5084096;28;20044;-80
2023/08/03 05:48:14;;;;;;;8.70;6.28;;;;;;;;;;5082671;27;20093;-80
2023/08/03 05:50:42;;;;;;;10.52;6.85;;;;;;;;;;5082089;28;20044;-80
2023/08/03 05:53:11;;;;;;;8.85;6.20;;;;;;;;;;5084965;28;20044;-79
2023/08/03 05:55:38;;;;;;;8.18;6.45;;;;;;;;;;5082117;27;20559;-79
2023/08/03 05:58:05;;;;;;;8.55;6.38;;;;;;;;;;5082086;28;20109;-80
2023/08/03 06:00:31;;;;;;;12.80;6.50;;;;;;;;;;5083619;28;20039;-80
2023/08/03 06:02:57;;;;;;;7.53;6.75;;;;;;;;;;5083517;28;20131;-79
2023/08/03 06:05:43;;;;;;;7.45;6.32;;;;;;;;;;5082663;27;20051;-80
2023/08/03 06:08:18;;;;;;;7.38;6.18;;;;;;;;;;5081539;27;20047;-79
2023/08/03 06:10:45;;;;;;;9.95;6.40;;;;;;;;;;5081920;27;21353;-79
2023/08/03 06:13:12;;;;;;;7.65;5.97;;;;;;;;;;5046129;28;20051;-77
2023/08/03 06:15:39;;;;;;;10.55;6.43;;;;;;;;;;5087927;28;20048;-79
2023/08/03 06:18:09;;;;;;;8.48;6.28;;;;;;;;;;5061941;28;20769;-77
2023/08/03 06:20:35;;;;;;;6.95;6.22;;;;;;;;;;5083078;28;20043;-78
2023/08/03 06:23:03;;;;;;;7.60;6.35;;;;;;;;;;5079941;27;21630;-78
2023/08/03 06:25:30;;;;;;;7.72;6.10;;;;;;;;;;5048531;28;20134;-77
2023/08/03 06:28:04;;;;;;;8.40;6.13;;;;;;;;;;5064050;28;20403;-78
2023/08/03 06:30:30;;;;;;;9.02;7.05;;;;;;;;;;5061557;28;20063;-78
2023/08/03 06:32:57;;;;;;;6.30;5.70;;;;;;;;;;5080671;27;20071;-77
2023/08/03 06:35:24;;;;;;;7.22;5.03;;;;;;;;;;5062161;28;20073;-78
2023/08/03 06:37:52;;;;;;;6.40;4.70;;;;;;;;;;5081561;28;20511;-78
2023/08/03 06:40:18;;;;;;;6.43;3.55;;;;;;;;;;5081943;27;20059;-77
2023/08/03 06:42:44;;;;;;;5.20;3.15;;;;;;;;;;5081750;28;20158;-77
2023/08/03 06:45:10;;;;;;;3.75;2.30;;;;;;;;;;5064472;28;20058;-78
2023/08/03 06:47:37;;;;;;;2.83;1.92;;;;;;;;;;5056412;28;20112;-78
2023/08/03 06:50:03;;;;;;;1.95;1.35;;;;;;;;;;5080252;28;20138;-78
2023/08/03 06:52:29;;;;;;;2.15;1.70;;;;;;;;;;5084165;28;21567;-78
2023/08/03 06:54:55;;;;;;;3.08;1.50;;;;;;;;;;5081934;28;20071;-83
2023/08/03 06:57:22;;;;;;;1.70;1.25;;;;;;;;;;5063964;28;20040;-83
2023/08/03 06:59:48;;;;;;;2.55;1.30;;;;;;;;;;5067482;28;20047;-83
2023/08/03 07:02:14;;;;;;;1.90;0.90;;;;;;;;;;5089055;27;20051;-83
2023/08/03 07:04:40;;;;;;;2.00;0.60;;;;;;;;;;5055683;28;20039;-83
2023/08/03 07:07:07;;;;;;;3.80;0.60;;;;;;;;;;5065730;28;20044;-83
2023/08/03 07:09:33;;;;;;;1.50;0.60;;;;;;;;;;5061833;28;20052;-84
2023/08/03 07:11:59;;;;;;;2.25;0.40;;;;;;;;;;5061072;28;20101;-84
2023/08/03 07:14:26;;;;;;;1.27;0.52;;;;;;;;;;5058356;28;20052;-84
2023/08/03 07:16:52;;;;;;;2.28;0.45;;;;;;;;;;5041987;28;20078;-84
2023/08/03 07:19:18;;;;;;;0.95;0.77;;;;;;;;;;5066745;28;20078;-85
2023/08/03 07:21:44;;;;;;;1.70;0.40;;;;;;;;;;5079315;28;20051;-84
2023/08/03 07:24:10;;;;;;;2.40;0.70;;;;;;;;;;5065460;28;20047;-84
2023/08/03 07:26:36;;;;;;;2.33;0.60;;;;;;;;;;5070035;28;20094;-84
2023/08/03 07:29:02;;;;;;;3.28;0.75;;;;;;;;;;5081863;28;20116;-84
2023/08/03 07:31:28;;;;;;;3.00;0.80;;;;;;;;;;5081898;28;20052;-85
2023/08/03 07:33:54;;;;;;;3.08;0.60;;;;;;;;;;5063465;28;20052;-85
2023/08/03 07:36:21;;;;;;;1.15;0.70;;;;;;;;;;5101063;28;20131;-85
2023/08/03 07:38:47;;;;;;;3.20;1.00;;;;;;;;;;5082400;28;20071;-85
2023/08/03 07:41:13;;;;;;;3.47;1.13;;;;;;;;;;5083887;28;20144;-84
2023/08/03 07:43:39;;;;;;;2.17;1.00;;;;;;;;;;5084710;28;20081;-84
2023/08/03 07:46:05;;;;;;;6.30;0.90;;;;;;;;;;5085439;28;20205;-84
2023/08/03 07:48:32;;;;;;;3.92;1.25;;;;;;;;;;5084754;28;20043;-85
2023/08/03 07:50:58;;;;;;;4.45;1.30;;;;;;;;;;5085542;28;20062;-84
2023/08/03 07:53:24;;;;;;;5.40;1.38;;;;;;;;;;5082999;28;20043;-85
2023/08/03 07:55:50;;;;;;;8.45;1.30;;;;;;;;;;5102057;28;20118;-85
2023/08/03 07:58:16;;;;;;;4.57;0.90;;;;;;;;;;5069344;28;20063;-85
2023/08/03 08:00:42;;;;;;;1.98;1.00;;;;;;;;;;5102245;28;20068;-84
2023/08/03 08:03:08;;;;;;;4.68;1.15;;;;;;;;;;5083917;28;20079;-85
2023/08/03 08:05:35;;;;;;;4.45;1.20;;;;;;;;;;5068438;28;20094;-85
2023/08/03 08:08:01;;;;;;;5.05;1.48;;;;;;;;;;5084685;28;20101;-85
2023/08/03 08:10:27;;;;;;;7.95;1.38;;;;;;;;;;5081880;28;20054;-85
2023/08/03 08:12:53;;;;;;;4.93;1.20;;;;;;;;;;5076652;28;20047;-85
2023/08/03 08:15:19;;;;;;;12.60;1.35;;;;;;;;;;5086566;28;20096;-86
2023/08/03 08:17:45;;;;;;;9.43;1.38;;;;;;;;;;5063832;27;21664;-86
2023/08/03 08:20:11;;;;;;;4.78;1.30;;;;;;;;;;5081779;28;20406;-86
2023/08/03 08:22:37;;;;;;;6.38;1.30;;;;;;;;;;5083372;28;20051;-85
2023/08/03 08:25:03;;;;;;;5.75;0.98;;;;;;;;;;5083965;28;20761;-85
2023/08/03 08:27:29;;;;;;;4.50;0.93;;;;;;;;;;5067601;28;20052;-86
2023/08/03 08:29:55;;;;;;;6.32;1.50;;;;;;;;;;5064448;28;20129;-85
2023/08/03 08:32:21;;;;;;;4.65;1.10;;;;;;;;;;5084162;28;20048;-85
2023/08/03 08:34:47;;;;;;;3.25;1.02;;;;;;;;;;5068025;28;20055;-86
2023/08/03 08:37:13;;;;;;;2.92;0.93;;;;;;;;;;5083631;28;21366;-86
2023/08/03 08:39:40;;;;;;;5.07;1.27;;;;;;;;;;5054620;28;20656;-86
2023/08/03 08:42:15;;;;;;;5.35;1.15;;;;;;;;;;5066018;28;20058;-86
2023/08/03 08:44:41;;;;;;;3.38;0.98;;;;;;;;;;5085802;28;20135;-84
2023/08/03 08:47:07;;;;;;;6.80;1.30;;;;;;;;;;5080727;28;20054;-84
2023/08/03 08:49:33;;;;;;;3.10;0.98;;;;;;;;;;5060431;28;20392;-82
2023/08/03 08:52:02;;;;;;;5.90;1.38;;;;;;;;;;5062511;28;20437;-83
2023/08/03 08:54:32;;;;;;;3.63;1.05;;;;;;;;;;5048838;28;20692;-83
2023/08/03 08:56:58;;;;;;;3.90;1.25;;;;;;;;;;5062838;28;20054;-82
2023/08/03 08:59:26;;;;;;;6.30;1.40;;;;;;;;;;5072960;28;20042;-83
2023/08/03 09:01:53;;;;;;;7.20;1.40;;;;;;;;;;5095508;28;20066;-82
2023/08/03 09:04:27;;;;;;;6.10;1.50;;;;;;;;;;5077089;28;21903;-83
2023/08/03 09:06:53;;;;;;;4.63;1.35;;;;;;;;;;5076516;28;20108;-83
2023/08/03 09:09:26;;;;;;;7.40;1.20;;;;;;;;;;5100478;28;20039;-84
2023/08/03 09:11:55;;;;;;;5.90;1.42;;;;;;;;;;5074661;28;20063;-83
2023/08/03 09:14:22;;;;;;;7.18;1.67;;;;;;;;;;5051550;28;20875;-83
2023/08/03 09:16:48;;;;;;;5.75;1.33;;;;;;;;;;5081571;28;20075;-82
2023/08/03 09:19:14;;;;;;;4.63;1.38;;;;;;;;;;5091324;27;20079;-82
2023/08/03 09:21:40;;;;;;;6.63;1.60;;;;;;;;;;5072566;28;20051;-83
2023/08/03 09:24:17;;;;;;;5.55;1.77;;;;;;;;;;5077523;28;20047;-83
2023/08/03 09:26:43;;;;;;;10.23;2.38;;;;;;;;;;5078650;28;20534;-83
2023/08/03 09:29:16;;;;;;;8.82;2.13;;;;;;;;;;5078722;28;20124;-82
2023/08/03 09:31:42;;;;;;;10.83;2.40;;;;;;;;;;5076994;28;20048;-83
2023/08/03 09:34:08;;;;;;;8.52;2.50;;;;;;;;;;5071049;28;20181;-82
2023/08/03 09:36:34;;;;;;;5.32;1.60;;;;;;;;;;5058823;28;20085;-83
2023/08/03 09:39:10;;;;;;;8.90;2.00;;;;;;;;;;5066807;28;20056;-83
2023/08/03 09:41:37;;;;;;;11.93;3.85;;;;;;;;;;5064842;28;20039;-82
2023/08/03 09:44:05;;;;;;;9.50;2.42;;;;;;;;;;5066899;28;20215;-82
2023/08/03 09:46:32;;;;;;;9.30;1.95;;;;;;;;;;5061757;28;20098;-82
2023/08/03 09:48:58;;;;;;;10.43;2.20;;;;;;;;;;5080327;27;20070;-81
2023/08/03 09:51:31;;;;;;;8.40;2.20;;;;;;;;;;5080445;27;20453;-82
2023/08/03 09:53:59;;;;;;;7.88;2.40;;;;;;;;;;5085679;28;20052;-83
2023/08/03 09:56:31;;;;;;;10.13;2.65;;;;;;;;;;5062371;28;20060;-83
2023/08/03 09:59:03;;;;;;;8.45;2.70;;;;;;;;;;5063880;28;20433;-82
2023/08/03 10:01:32;;;;;;;15.60;2.63;;;;;;;;;;5062200;28;20047;-84
2023/08/03 10:04:05;;;;;;;11.90;2.72;;;;;;;;;;5067252;28;20100;-83
2023/08/03 10:06:35;;;;;;;8.20;3.50;;;;;;;;;;5081086;28;20051;-83
2023/08/03 10:09:05;;;;;;;11.93;3.40;;;;;;;;;;5081018;28;20856;-83
2023/08/03 10:11:37;;;;;;;10.85;2.20;;;;;;;;;;5064679;28;20095;-83
2023/08/03 10:14:05;;;;;;;8.38;1.85;;;;;;;;;;5064004;28;20064;-83
2023/08/03 10:16:35;;;;;;;8.93;2.33;;;;;;;;;;5063157;28;20083;-82
2023/08/03 10:19:05;;;;;;;6.38;1.75;;;;;;;;;;5049185;28;20384;-83
2023/08/03 10:21:32;;;;;;;9.07;2.03;;;;;;;;;;5062291;28;20751;-83
2023/08/03 10:24:08;;;;;;;10.77;2.65;;;;;;;;;;5081079;28;20047;-85
2023/08/03 10:26:35;;;;;;;9.13;1.95;;;;;;;;;;5063376;28;20704;-84
2023/08/03 10:29:01;;;;;;;6.28;2.00;;;;;;;;;;5081878;28;20051;-85
2023/08/03 10:31:28;;;;;;;8.65;2.03;;;;;;;;;;5064361;28;20056;-84
2023/08/03 10:33:55;;;;;;;8.48;2.17;;;;;;;;;;5063340;28;20495;-84
2023/08/03 10:36:34;;;;;;;7.82;1.77;;;;;;;;;;5063916;28;20363;-84
2023/08/03 10:39:00;;;;;;;8.90;2.13;;;;;;;;;;5065674;28;20094;-83
2023/08/03 10:41:37;;;;;;;5.05;1.60;;;;;;;;;;5063725;28;20047;-83
2023/08/03 10:44:09;;;;;;;10.40;2.20;;;;;;;;;;5067998;28;20047;-84
2023/08/03 10:46:38;;;;;;;5.07;1.52;;;;;;;;;;5063576;28;20059;-84
2023/08/03 10:49:19;;;;;;;7.65;1.80;;;;;;;;;;5064403;28;20511;-82
2023/08/03 10:51:46;;;;;;;7.38;1.73;;;;;;;;;;5066084;28;20112;-84
2023/08/03 10:54:12;;;;;;;9.13;1.92;;;;;;;;;;5061005;28;20060;-83
2023/08/03 10:56:38;;;;;;;4.13;1.00;;;;;;;;;;5065412;28;20055;-83
2023/08/03 10:59:05;;;;;;;6.68;1.60;;;;;;;;;;5067052;27;20048;-83
2023/08/03 11:01:31;;;;;;;6.97;1.60;;;;;;;;;;5063961;28;20182;-84
2023/08/03 11:04:00;;;;;;;5.43;1.20;;;;;;;;;;5064664;28;20050;-83
2023/08/03 11:06:30;;;;;;;8.13;2.20;;;;;;;;;;5073918;28;20052;-83
2023/08/03 11:08:57;;;;;;;5.45;1.50;;;;;;;;;;5083108;28;20070;-84
2023/08/03 11:11:32;;;;;;;4.38;1.52;;;;;;;;;;5067044;28;20056;-84
2023/08/03 11:13:58;;;;;;;8.20;1.80;;;;;;;;;;5099333;28;20056;-82
2023/08/03 11:16:25;;;;;;;7.03;2.00;;;;;;;;;;5077281;28;20043;-82
2023/08/03 11:18:51;;;;;;;9.23;1.98;;;;;;;;;;5081030;28;20756;-82
2023/08/03 11:21:17;;;;;;;12.25;2.38;;;;;;;;;;5080001;28;20563;-81
2023/08/03 11:23:43;;;;;;;5.72;1.80;;;;;;;;;;5097020;28;20979;-82
2023/08/03 11:26:10;;;;;;;9.07;1.95;;;;;;;;;;5046614;28;20871;-82
2023/08/03 11:28:45;;;;;;;21.27;2.83;;;;;;;;;;5091726;28;20044;-82
2023/08/03 11:31:15;;;;;;;8.07;1.63;;;;;;;;;;5071404;28;20173;-81
2023/08/03 11:33:47;;;;;;;10.95;1.85;;;;;;;;;;5083634;28;20044;-82
2023/08/03 11:36:13;;;;;;;8.00;1.85;;;;;;;;;;5093847;28;20187;-83
2023/08/03 11:38:39;;;;;;;3.60;1.30;;;;;;;;;;5113530;28;20050;-83
2023/08/03 11:41:05;;;;;;;6.70;1.60;;;;;;;;;;5108331;28;20051;-82
2023/08/03 11:43:31;;;;;;;3.90;1.10;;;;;;;;;;5113049;28;20123;-81
2023/08/03 11:45:57;;;;;;;3.42;1.20;;;;;;;;;;5116083;28;20048;-81
2023/08/03 11:48:25;;;;;;;4.88;1.08;;;;;;;;;;5098977;28;20048;-82
2023/08/03 11:50:52;;;;;;;4.88;0.88;;;;;;;;;;5088607;28;20058;-81
2023/08/03 11:53:25;;;;;;;3.50;0.90;;;;;;;;;;5108765;28;20044;-80
2023/08/03 11:55:51;;;;;;;3.25;0.65;;;;;;;;;;5110368;28;20093;-81
2023/08/03 11:58:17;;;;;;;3.20;1.00;;;;;;;;;;5094347;28;20051;-79
2023/08/03 12:00:44;;;;;;;6.20;1.20;;;;;;;;;;5105993;28;20052;-81
2023/08/03 12:03:10;;;;;;;5.18;1.10;;;;;;;;;;5089197;28;20057;-80
2023/08/03 12:05:51;;;;;;;3.88;1.23;;;;;;;;;;5107720;28;20048;-80
2023/08/03 12:08:18;;;;;;;3.72;1.10;;;;;;;;;;5085210;28;20055;-81
2023/08/03 12:11:01;;;;;;;3.35;1.15;;;;;;;;;;5089760;28;20063;-81
2023/08/03 12:13:27;;;;;;;4.37;1.40;;;;;;;;;;5029661;28;1134040;-81
2023/08/03 12:15:54;;;;;;;8.57;1.27;;;;;;;;;;5094898;28;20135;-80
2023/08/03 12:18:21;;;;;;;7.38;1.80;;;;;;;;;;5100517;28;20063;-80
2023/08/03 12:20:50;;;;;;;8.07;1.70;;;;;;;;;;5079985;28;20054;-81
2023/08/03 12:23:20;;;;;;;8.23;2.00;;;;;;;;;;5079151;28;20085;-81
2023/08/03 12:25:46;;;;;;;11.38;1.98;;;;;;;;;;5080401;28;20236;-80
2023/08/03 12:28:12;;;;;;;10.70;2.10;;;;;;;;;;5098944;28;20044;-81
2023/08/03 12:30:39;;;;;;;9.43;1.73;;;;;;;;;;5077238;28;20052;-81
2023/08/03 12:33:09;;;;;;;6.47;1.58;;;;;;;;;;5078817;28;20581;-82
2023/08/03 12:35:36;;;;;;;10.02;1.75;;;;;;;;;;5097200;28;20066;-80
2023/08/03 12:38:02;;;;;;;5.78;1.60;;;;;;;;;;5096025;28;20648;-81
2023/08/03 12:40:28;;;;;;;2.85;1.02;;;;;;;;;;5077384;28;20399;-80
2023/08/03 12:42:55;;;;;;;8.20;1.77;;;;;;;;;;5078123;28;20051;-80
2023/08/03 12:45:22;;;;;;;7.00;1.65;;;;;;;;;;5076794;28;20052;-80
2023/08/03 12:47:48;;;;;;;8.48;1.52;;;;;;;;;;5073850;28;20419;-81
2023/08/03 12:50:14;;;;;;;6.38;1.40;;;;;;;;;;5058860;28;20067;-79
2023/08/03 12:52:40;;;;;;;11.18;2.40;;;;;;;;;;5080612;28;20486;-80
2023/08/03 12:55:06;;;;;;;11.70;2.15;;;;;;;;;;5061765;28;20110;-79
2023/08/03 12:57:32;;;;;;;12.00;1.55;;;;;;;;;;5089114;28;20040;-80
2023/08/03 12:59:58;;;;;;;6.15;1.40;;;;;;;;;;5072849;28;20112;-80
2023/08/03 13:02:27;;;;;;;3.67;0.90;;;;;;;;;;5074993;28;20051;-80
2023/08/03 13:04:53;;;;;;;3.50;0.90;;;;;;;;;;5062654;28;20071;-80
2023/08/03 13:07:19;;;;;;;2.47;0.85;;;;;;;;;;5075195;28;20052;-81
2023/08/03 13:09:45;;;;;;;3.08;0.80;;;;;;;;;;5077260;28;20181;-80
2023/08/03 13:12:14;;;;;;;3.22;1.15;;;;;;;;;;5076477;28;20075;-79
2023/08/03 13:14:41;;;;;;;2.30;0.70;;;;;;;;;;5076213;28;20111;-80
2023/08/03 13:17:07;;;;;;;5.10;1.30;;;;;;;;;;5073654;28;20194;-80
2023/08/03 13:19:33;;;;;;;5.38;1.30;;;;;;;;;;5054953;28;20121;-80
2023/08/03 13:21:59;;;;;;;5.65;1.40;;;;;;;;;;5078346;28;20051;-80
2023/08/03 13:24:25;;;;;;;5.40;1.20;;;;;;;;;;5073746;28;20098;-80
2023/08/03 13:26:53;;;;;;;6.45;1.45;;;;;;;;;;5073436;28;20058;-80
2023/08/03 13:29:20;;;;;;;8.13;1.23;;;;;;;;;;5076682;28;20048;-81
2023/08/03 13:31:46;;;;;;;6.85;1.63;;;;;;;;;;5076987;28;20060;-79
2023/08/03 13:34:13;;;;;;;3.45;1.10;;;;;;;;;;5052895;28;20139;-80
2023/08/03 13:36:39;;;;;;;4.85;1.00;;;;;;;;;;5087576;28;20186;-80
2023/08/03 13:39:05;;;;;;;2.78;1.55;;;;;;;;;;5071207;28;20154;-80
2023/08/03 13:41:31;;;;;;;4.40;1.00;;;;;;;;;;5067801;28;20079;-80
2023/08/03 13:43:57;;;;;;;4.15;1.50;;;;;;;;;;5059406;28;20159;-80
2023/08/03 13:46:23;;;;;;;4.30;1.38;;;;;;;;;;5074581;28;21203;-80
2023/08/03 13:48:50;;;;;;;6.57;1.33;;;;;;;;;;5075462;28;20044;-79
2023/08/03 13:51:16;;;;;;;4.32;1.50;;;;;;;;;;5059458;28;20516;-80
2023/08/03 13:53:43;;;;;;;3.88;1.00;;;;;;;;;;5075493;28;20127;-79
2023/08/03 13:56:09;;;;;;;3.53;1.20;;;;;;;;;;5073854;28;21624;-79
2023/08/03 13:58:35;;;;;;;3.60;1.45;;;;;;;;;;5068490;28;20060;-79
2023/08/03 14:01:01;;;;;;;4.60;1.30;;;;;;;;;;5058165;28;20051;-79
2023/08/03 14:03:27;;;;;;;6.38;2.50;;;;;;;;;;5078173;28;20044;-79
2023/08/03 14:05:53;;;;;;;6.35;1.85;;;;;;;;;;5049027;28;20157;-79
2023/08/03 14:08:19;;;;;;;10.23;2.40;;;;;;;;;;5069556;28;20043;-79
2023/08/03 14:10:45;;;;;;;7.95;2.20;;;;;;;;;;5069284;28;21616;-79
2023/08/03 14:13:11;;;;;;;7.10;2.22;;;;;;;;;;5061524;28;20052;-78
2023/08/03 14:15:37;;;;;;;6.68;2.17;;;;;;;;;;5059723;28;20553;-77
2023/08/03 14:18:03;;;;;;;8.60;2.38;;;;;;;;;;5067306;28;20059;-79
2023/08/03 14:20:29;;;;;;;9.45;2.20;;;;;;;;;;5066815;28;21968;-79
2023/08/03 14:22:55;;;;;;;6.40;1.85;;;;;;;;;;5064822;28;20209;-79
2023/08/03 14:25:21;;;;;;;7.32;2.25;;;;;;;;;;5065844;28;20062;-79
2023/08/03 14:27:48;;;;;;;5.65;2.00;;;;;;;;;;5045979;28;20040;-80
2023/08/03 14:30:15;;;;;;;9.98;2.20;;;;;;;;;;5060363;28;20143;-80
2023/08/03 14:32:43;;;;;;;9.80;2.05;;;;;;;;;;5058545;28;20056;-80
2023/08/03 14:35:09;;;;;;;8.20;2.65;;;;;;;;;;5058292;28;20176;-80
2023/08/03 14:37:35;;;;;;;11.93;2.70;;;;;;;;;;5059143;28;20428;-80
2023/08/03 14:40:01;;;;;;;9.90;2.67;;;;;;;;;;5064049;28;20048;-80